createdAt,value
2023-04-14T00:00:24.770Z,972.13
2023-04-14T00:00:56.408Z,972.54
2023-04-14T00:01:27.584Z,972.54
2023-04-14T00:02:00.563Z,972.33
2023-04-14T00:02:31.707Z,972.33
2023-04-14T00:03:04.680Z,972.54
2023-04-14T00:03:35.635Z,972.54
2023-04-14T00:04:08.629Z,972.23
2023-04-14T00:04:39.584Z,972.23
2023-04-14T00:05:12.582Z,972.43
2023-04-14T00:05:43.722Z,972.43
2023-04-14T00:06:16.277Z,972.64
2023-04-14T00:06:47.514Z,972.33
2023-04-14T00:07:20.580Z,972.33
2023-04-14T00:07:51.874Z,972.33
2023-04-14T00:08:24.329Z,972.33
2023-04-14T00:08:55.567Z,972.43
2023-04-14T00:09:28.483Z,972.43
2023-04-14T00:09:59.496Z,972.54
2023-04-14T00:10:16.001Z,972.54
2023-04-14T00:10:47.564Z,972.43
2023-04-14T00:11:19.534Z,972.43
2023-04-14T00:11:51.477Z,972.43
2023-04-14T00:12:23.740Z,972.43
2023-04-14T00:12:55.546Z,972.54
2023-04-14T00:13:27.593Z,972.54
2023-04-14T00:13:59.498Z,972.33
2023-04-14T00:14:31.451Z,972.33
2023-04-14T00:15:05.782Z,972.43
2023-04-14T00:15:35.547Z,972.43
2023-04-14T00:16:08.428Z,972.54
2023-04-14T00:16:39.511Z,972.54
2023-04-14T00:17:12.442Z,972.43
2023-04-14T00:17:43.736Z,972.43
2023-04-14T00:18:16.607Z,972.64
2023-04-14T00:18:47.587Z,972.54
2023-04-14T00:19:20.395Z,972.54
2023-04-14T00:19:51.381Z,972.43
2023-04-14T00:20:24.559Z,972.43
2023-04-14T00:20:55.589Z,972.43
2023-04-14T00:21:28.402Z,972.43
2023-04-14T00:21:59.616Z,972.64
2023-04-14T00:22:32.428Z,972.64
2023-04-14T00:23:03.750Z,972.43
2023-04-14T00:23:36.685Z,972.43
2023-04-14T00:24:07.628Z,972.33
2023-04-14T00:24:40.359Z,972.33
2023-04-14T00:25:11.679Z,972.54
2023-04-14T00:25:44.375Z,972.54
2023-04-14T00:26:15.615Z,972.64
2023-04-14T00:26:48.424Z,972.43
2023-04-14T00:27:19.508Z,972.43
2023-04-14T00:27:52.447Z,972.54
2023-04-14T00:28:23.664Z,972.54
2023-04-14T00:28:56.415Z,972.43
2023-04-14T00:29:27.535Z,972.43
2023-04-14T00:30:01.925Z,972.64
2023-04-14T00:30:31.808Z,972.64
2023-04-14T00:31:04.421Z,972.54
2023-04-14T00:31:35.545Z,972.54
2023-04-14T00:32:08.586Z,972.64
2023-04-14T00:32:39.498Z,972.64
2023-04-14T00:33:12.483Z,972.74
2023-04-14T00:33:43.528Z,972.74
2023-04-14T00:34:16.648Z,972.64
2023-04-14T00:34:47.551Z,972.64
2023-04-14T00:35:20.693Z,972.64
2023-04-14T00:35:51.685Z,972.54
2023-04-14T00:36:24.343Z,972.54
2023-04-14T00:36:55.558Z,972.64
2023-04-14T00:37:28.695Z,972.64
2023-04-14T00:37:59.608Z,972.54
2023-04-14T00:38:32.250Z,972.54
2023-04-14T00:39:03.533Z,972.43
2023-04-14T00:39:36.606Z,972.43
2023-04-14T00:40:07.684Z,972.54
2023-04-14T00:40:40.334Z,972.54
2023-04-14T00:41:11.618Z,972.54
2023-04-14T00:41:44.444Z,972.54
2023-04-14T00:42:15.499Z,972.74
2023-04-14T00:42:48.616Z,972.54
2023-04-14T00:43:19.549Z,972.54
2023-04-14T00:43:52.110Z,972.54
2023-04-14T00:44:23.598Z,972.54
2023-04-14T00:44:56.538Z,972.54
2023-04-14T00:45:28.664Z,972.54
2023-04-14T00:46:00.383Z,972.64
2023-04-14T00:46:31.744Z,972.64
2023-04-14T00:47:04.513Z,972.64
2023-04-14T00:47:35.559Z,972.64
2023-04-14T00:48:08.414Z,972.64
2023-04-14T00:48:39.715Z,972.64
2023-04-14T00:49:12.414Z,972.54
2023-04-14T00:49:43.559Z,972.54
2023-04-14T00:50:16.849Z,972.64
2023-04-14T00:50:47.785Z,972.74
2023-04-14T00:51:20.414Z,972.74
2023-04-14T00:51:51.583Z,972.74
2023-04-14T00:52:24.442Z,972.74
2023-04-14T00:52:55.699Z,972.64
2023-04-14T00:53:28.251Z,972.64
2023-04-14T00:53:59.571Z,972.54
2023-04-14T00:54:33.357Z,972.54
2023-04-14T00:55:03.793Z,972.74
2023-04-14T00:55:36.252Z,972.74
2023-04-14T00:56:07.621Z,972.64
2023-04-14T00:56:40.377Z,972.64
2023-04-14T00:57:11.577Z,972.64
2023-04-14T00:57:44.326Z,972.64
2023-04-14T00:58:15.750Z,972.64
2023-04-14T00:58:48.247Z,972.74
2023-04-14T00:59:19.574Z,972.74
2023-04-14T00:59:52.381Z,972.84
2023-04-14T01:00:24.533Z,972.84
2023-04-14T01:00:56.370Z,972.74
2023-04-14T01:01:27.569Z,972.74
2023-04-14T01:02:00.492Z,972.84
2023-04-14T01:02:31.841Z,972.84
2023-04-14T01:03:04.699Z,972.84
2023-04-14T01:03:35.760Z,972.84
2023-04-14T01:04:08.722Z,972.84
2023-04-14T01:04:52.898Z,972.84
2023-04-14T01:05:12.825Z,972.84
2023-04-14T01:05:43.649Z,972.84
2023-04-14T01:06:16.245Z,972.64
2023-04-14T01:06:47.604Z,972.84
2023-04-14T01:07:20.447Z,972.84
2023-04-14T01:07:51.480Z,972.91
2023-04-14T01:08:24.281Z,972.91
2023-04-14T01:08:55.561Z,973.01
2023-04-14T01:09:28.413Z,973.01
2023-04-14T01:09:59.453Z,972.74
2023-04-14T01:10:16.041Z,972.74
2023-04-14T01:10:47.572Z,972.91
2023-04-14T01:11:19.530Z,972.91
2023-04-14T01:11:51.653Z,972.84
2023-04-14T01:12:23.734Z,972.84
2023-04-14T01:12:55.620Z,972.84
2023-04-14T01:13:27.638Z,972.84
2023-04-14T01:13:59.572Z,973.01
2023-04-14T01:14:31.520Z,973.01
2023-04-14T01:15:05.550Z,972.91
2023-04-14T01:15:35.765Z,972.91
2023-04-14T01:16:08.493Z,972.84
2023-04-14T01:16:39.520Z,972.84
2023-04-14T01:17:12.454Z,972.84
2023-04-14T01:17:43.641Z,972.84
2023-04-14T01:18:16.244Z,972.84
2023-04-14T01:18:47.661Z,972.84
2023-04-14T01:19:20.210Z,972.84
2023-04-14T01:19:51.656Z,972.84
2023-04-14T01:20:24.548Z,972.84
2023-04-14T01:20:55.598Z,973.11
2023-04-14T01:21:28.460Z,973.11
2023-04-14T01:21:59.515Z,972.91
2023-04-14T01:22:32.376Z,972.91
2023-04-14T01:23:03.618Z,973.01
2023-04-14T01:23:36.556Z,973.01
2023-04-14T01:24:07.505Z,973.01
2023-04-14T01:24:40.187Z,973.01
2023-04-14T01:25:11.926Z,972.84
2023-04-14T01:25:44.476Z,972.84
2023-04-14T01:26:15.619Z,973.01
2023-04-14T01:26:48.353Z,973.11
2023-04-14T01:27:19.488Z,973.11
2023-04-14T01:27:52.434Z,973.01
2023-04-14T01:28:23.634Z,973.01
2023-04-14T01:28:56.447Z,973.21
2023-04-14T01:29:27.586Z,973.21
2023-04-14T01:30:01.777Z,972.91
2023-04-14T01:30:31.775Z,972.91
2023-04-14T01:31:04.289Z,973.11
2023-04-14T01:31:35.632Z,973.11
2023-04-14T01:32:09.342Z,973.01
2023-04-14T01:32:39.765Z,973.01
2023-04-14T01:33:12.215Z,973.01
2023-04-14T01:33:43.606Z,973.01
2023-04-14T01:34:16.365Z,973.01
2023-04-14T01:34:47.650Z,973.01
2023-04-14T01:35:20.628Z,973.01
2023-04-14T01:35:51.670Z,973.01
2023-04-14T01:36:24.496Z,973.01
2023-04-14T01:36:55.599Z,973.01
2023-04-14T01:37:28.549Z,973.01
2023-04-14T01:37:59.626Z,973.21
2023-04-14T01:38:32.221Z,973.21
2023-04-14T01:39:03.503Z,973.01
2023-04-14T01:39:36.306Z,973.01
2023-04-14T01:40:07.681Z,973.11
2023-04-14T01:40:40.206Z,973.11
2023-04-14T01:41:11.696Z,973.01
2023-04-14T01:41:44.382Z,973.01
2023-04-14T01:42:15.531Z,973.01
2023-04-14T01:42:48.369Z,972.91
2023-04-14T01:43:19.648Z,972.91
2023-04-14T01:43:52.560Z,973.01
2023-04-14T01:44:23.622Z,973.01
2023-04-14T01:44:56.487Z,973.11
2023-04-14T01:45:28.545Z,973.11
2023-04-14T01:46:01.701Z,972.84
2023-04-14T01:46:31.618Z,972.84
2023-04-14T01:47:04.881Z,972.91
2023-04-14T01:47:35.482Z,972.91
2023-04-14T01:48:08.446Z,973.11
2023-04-14T01:48:39.567Z,973.11
2023-04-14T01:49:12.662Z,972.84
2023-04-14T01:49:43.593Z,972.84
2023-04-14T01:50:16.773Z,972.84
2023-04-14T01:50:47.585Z,972.91
2023-04-14T01:51:20.557Z,972.91
2023-04-14T01:51:51.645Z,972.91
2023-04-14T01:52:24.647Z,972.91
2023-04-14T01:52:55.676Z,972.64
2023-04-14T01:53:28.479Z,972.64
2023-04-14T01:53:59.605Z,972.74
2023-04-14T01:54:32.711Z,972.74
2023-04-14T01:55:03.773Z,972.84
2023-04-14T01:55:36.579Z,972.84
2023-04-14T01:56:07.737Z,972.64
2023-04-14T01:56:40.637Z,972.64
2023-04-14T01:57:11.699Z,972.64
2023-04-14T01:57:44.520Z,972.64
2023-04-14T01:58:15.820Z,972.84
2023-04-14T01:58:48.615Z,972.84
2023-04-14T01:59:19.683Z,972.84
2023-04-14T01:59:52.683Z,972.74
2023-04-14T02:00:24.795Z,972.74
2023-04-14T02:00:56.558Z,972.74
2023-04-14T02:01:27.771Z,972.74
2023-04-14T02:02:00.998Z,972.64
2023-04-14T02:02:31.883Z,972.64
2023-04-14T02:03:04.694Z,972.74
2023-04-14T02:03:35.763Z,972.74
2023-04-14T02:04:08.714Z,972.43
2023-04-14T02:04:39.809Z,972.43
2023-04-14T02:05:12.995Z,972.74
2023-04-14T02:05:43.713Z,972.74
2023-04-14T02:06:16.435Z,972.64
2023-04-14T02:06:47.690Z,972.74
2023-04-14T02:07:20.632Z,972.74
2023-04-14T02:07:51.596Z,972.64
2023-04-14T02:08:24.402Z,972.64
2023-04-14T02:08:55.623Z,972.74
2023-04-14T02:09:28.533Z,972.74
2023-04-14T02:09:59.512Z,972.84
2023-04-14T02:10:16.132Z,972.84
2023-04-14T02:10:47.511Z,972.74
2023-04-14T02:11:19.508Z,972.74
2023-04-14T02:11:51.746Z,972.84
2023-04-14T02:12:23.545Z,972.84
2023-04-14T02:12:56.460Z,972.74
2023-04-14T02:13:27.681Z,972.74
2023-04-14T02:14:00.486Z,972.64
2023-04-14T02:14:31.553Z,972.64
2023-04-14T02:14:47.764Z,972.74
2023-04-14T02:15:20.441Z,972.74
2023-04-14T02:15:51.769Z,972.64
2023-04-14T02:16:23.757Z,972.64
2023-04-14T02:16:55.655Z,972.74
2023-04-14T02:17:27.619Z,972.74
2023-04-14T02:17:59.687Z,972.54
2023-04-14T02:18:31.724Z,972.54
2023-04-14T02:19:03.695Z,972.43
2023-04-14T02:19:36.620Z,972.43
2023-04-14T02:20:07.853Z,972.84
2023-04-14T02:20:41.179Z,972.84
2023-04-14T02:21:11.501Z,972.64
2023-04-14T02:21:44.333Z,972.64
2023-04-14T02:22:15.681Z,972.74
2023-04-14T02:22:48.494Z,972.74
2023-04-14T02:23:19.620Z,972.74
2023-04-14T02:23:52.534Z,972.54
2023-04-14T02:24:23.704Z,972.54
2023-04-14T02:24:56.286Z,972.74
2023-04-14T02:25:27.923Z,972.74
2023-04-14T02:26:00.553Z,972.54
2023-04-14T02:26:31.519Z,972.54
2023-04-14T02:26:47.739Z,972.74
2023-04-14T02:27:19.523Z,972.74
2023-04-14T02:27:51.481Z,972.54
2023-04-14T02:28:23.716Z,972.54
2023-04-14T02:28:55.643Z,972.54
2023-04-14T02:29:27.571Z,972.54
2023-04-14T02:29:59.573Z,972.64
2023-04-14T02:30:32.919Z,972.64
2023-04-14T02:31:03.555Z,972.33
2023-04-14T02:31:36.302Z,972.33
2023-04-14T02:32:07.735Z,972.74
2023-04-14T02:32:40.461Z,972.74
2023-04-14T02:33:11.520Z,972.64
2023-04-14T02:33:45.157Z,972.64
2023-04-14T02:34:15.737Z,972.54
2023-04-14T02:34:48.416Z,972.64
2023-04-14T02:35:19.747Z,972.64
2023-04-14T02:35:53.594Z,972.54
2023-04-14T02:36:23.589Z,972.54
2023-04-14T02:36:56.524Z,972.74
2023-04-14T02:37:27.631Z,972.74
2023-04-14T02:38:00.704Z,972.54
2023-04-14T02:38:31.475Z,972.54
2023-04-14T02:39:04.251Z,972.54
2023-04-14T02:39:35.690Z,972.54
2023-04-14T02:40:11.650Z,972.64
2023-04-14T02:40:39.654Z,972.64
2023-04-14T02:41:12.467Z,972.74
2023-04-14T02:41:43.699Z,972.74
2023-04-14T02:42:16.491Z,972.74
2023-04-14T02:42:47.637Z,972.84
2023-04-14T02:43:21.297Z,972.84
2023-04-14T02:43:51.548Z,972.64
2023-04-14T02:44:24.451Z,972.64
2023-04-14T02:44:55.579Z,972.64
2023-04-14T02:45:29.554Z,972.64
2023-04-14T02:45:59.706Z,972.74
2023-04-14T02:46:32.687Z,972.74
2023-04-14T02:47:03.702Z,973.01
2023-04-14T02:47:36.583Z,973.01
2023-04-14T02:48:07.566Z,972.91
2023-04-14T02:48:40.286Z,972.91
2023-04-14T02:49:12.823Z,972.91
2023-04-14T02:49:44.427Z,972.91
2023-04-14T02:50:15.881Z,973.01
2023-04-14T02:50:48.725Z,972.74
2023-04-14T02:51:19.496Z,972.74
2023-04-14T02:51:52.423Z,972.91
2023-04-14T02:52:23.595Z,972.91
2023-04-14T02:52:56.677Z,973.11
2023-04-14T02:53:27.638Z,973.11
2023-04-14T02:54:00.563Z,972.91
2023-04-14T02:54:31.679Z,972.91
2023-04-14T02:55:04.585Z,972.74
2023-04-14T02:55:35.560Z,972.74
2023-04-14T02:56:08.585Z,972.84
2023-04-14T02:56:39.708Z,972.84
2023-04-14T02:57:12.405Z,972.84
2023-04-14T02:57:43.596Z,972.84
2023-04-14T02:58:16.659Z,972.84
2023-04-14T02:58:47.544Z,972.91
2023-04-14T02:59:20.347Z,972.91
2023-04-14T02:59:51.654Z,973.01
2023-04-14T03:00:25.933Z,973.01
2023-04-14T03:00:55.729Z,972.84
2023-04-14T03:01:28.631Z,972.84
2023-04-14T03:01:59.660Z,972.91
2023-04-14T03:02:32.634Z,972.91
2023-04-14T03:03:03.708Z,972.84
2023-04-14T03:03:36.642Z,972.84
2023-04-14T03:04:07.716Z,972.91
2023-04-14T03:04:40.597Z,972.91
2023-04-14T03:05:11.908Z,972.74
2023-04-14T03:05:46.160Z,972.74
2023-04-14T03:06:15.597Z,973.01
2023-04-14T03:06:48.353Z,972.84
2023-04-14T03:07:19.705Z,972.84
2023-04-14T03:07:52.806Z,972.84
2023-04-14T03:08:23.540Z,972.84
2023-04-14T03:08:58.696Z,972.84
2023-04-14T03:09:27.693Z,972.84
2023-04-14T03:10:00.738Z,972.84
2023-04-14T03:10:31.661Z,972.84
2023-04-14T03:11:04.400Z,972.74
2023-04-14T03:11:35.562Z,972.74
2023-04-14T03:12:08.393Z,972.64
2023-04-14T03:12:39.705Z,972.64
2023-04-14T03:13:15.593Z,972.91
2023-04-14T03:13:43.607Z,972.91
2023-04-14T03:14:17.458Z,972.64
2023-04-14T03:14:47.673Z,972.91
2023-04-14T03:15:21.515Z,972.91
2023-04-14T03:15:51.802Z,972.74
2023-04-14T03:16:25.407Z,972.74
2023-04-14T03:16:55.704Z,972.74
2023-04-14T03:17:28.441Z,972.74
2023-04-14T03:17:59.612Z,972.74
2023-04-14T03:18:33.500Z,972.74
2023-04-14T03:19:03.552Z,972.84
2023-04-14T03:19:36.359Z,972.84
2023-04-14T03:20:07.885Z,972.74
2023-04-14T03:20:40.406Z,972.74
2023-04-14T03:21:11.560Z,972.54
2023-04-14T03:21:44.474Z,972.54
2023-04-14T03:22:15.710Z,972.43
2023-04-14T03:22:48.529Z,972.64
2023-04-14T03:23:19.670Z,972.64
2023-04-14T03:23:52.398Z,972.64
2023-04-14T03:24:23.591Z,972.64
2023-04-14T03:24:56.324Z,972.54
2023-04-14T03:25:27.892Z,972.54
2023-04-14T03:26:00.413Z,972.64
2023-04-14T03:26:31.644Z,972.64
2023-04-14T03:27:04.524Z,972.33
2023-04-14T03:27:35.721Z,972.33
2023-04-14T03:28:09.252Z,972.74
2023-04-14T03:28:39.545Z,972.74
2023-04-14T03:29:12.414Z,972.54
2023-04-14T03:29:43.510Z,972.54
2023-04-14T03:30:17.282Z,972.43
2023-04-14T03:30:47.903Z,972.64
2023-04-14T03:31:20.700Z,972.64
2023-04-14T03:31:51.672Z,972.43
2023-04-14T03:32:24.785Z,972.43
2023-04-14T03:32:55.784Z,972.54
2023-04-14T03:33:28.221Z,972.54
2023-04-14T03:33:59.735Z,972.54
2023-04-14T03:34:32.575Z,972.54
2023-04-14T03:35:03.964Z,972.64
2023-04-14T03:35:36.716Z,972.64
2023-04-14T03:36:07.685Z,972.54
2023-04-14T03:36:40.697Z,972.54
2023-04-14T03:37:11.625Z,972.84
2023-04-14T03:37:44.351Z,972.84
2023-04-14T03:38:15.683Z,972.54
2023-04-14T03:38:49.367Z,972.74
2023-04-14T03:39:19.643Z,972.74
2023-04-14T03:39:53.429Z,972.54
2023-04-14T03:40:23.991Z,972.54
2023-04-14T03:40:56.465Z,972.64
2023-04-14T03:41:27.641Z,972.64
2023-04-14T03:42:00.507Z,972.43
2023-04-14T03:42:31.859Z,972.43
2023-04-14T03:43:04.402Z,972.54
2023-04-14T03:43:35.673Z,972.54
2023-04-14T03:44:09.522Z,972.74
2023-04-14T03:44:39.579Z,972.74
2023-04-14T03:45:13.375Z,972.43
2023-04-14T03:45:43.815Z,972.43
2023-04-14T03:46:16.419Z,972.33
2023-04-14T03:46:47.567Z,972.64
2023-04-14T03:47:20.504Z,972.64
2023-04-14T03:47:51.773Z,972.43
2023-04-14T03:48:24.321Z,972.43
2023-04-14T03:48:55.606Z,972.54
2023-04-14T03:49:28.531Z,972.54
2023-04-14T03:49:59.847Z,972.64
2023-04-14T03:50:32.845Z,972.64
2023-04-14T03:51:03.792Z,972.64
2023-04-14T03:51:36.734Z,972.64
2023-04-14T03:52:07.507Z,972.64
2023-04-14T03:52:40.632Z,972.64
2023-04-14T03:53:11.697Z,972.54
2023-04-14T03:53:44.473Z,972.54
2023-04-14T03:54:15.545Z,972.64
2023-04-14T03:54:48.517Z,972.74
2023-04-14T03:55:20.455Z,972.74
2023-04-14T03:55:52.597Z,972.64
2023-04-14T03:56:23.810Z,972.64
2023-04-14T03:56:56.373Z,972.64
2023-04-14T03:57:27.734Z,972.64
2023-04-14T03:58:00.320Z,972.54
2023-04-14T03:58:31.661Z,972.54
2023-04-14T03:59:04.444Z,972.74
2023-04-14T03:59:35.508Z,972.74
2023-04-14T04:00:10.121Z,972.84
2023-04-14T04:00:39.755Z,972.84
2023-04-14T04:01:12.291Z,972.64
2023-04-14T04:01:43.622Z,972.64
2023-04-14T04:02:16.518Z,972.74
2023-04-14T04:02:47.870Z,972.84
2023-04-14T04:03:21.428Z,972.84
2023-04-14T04:03:51.916Z,972.74
2023-04-14T04:04:24.501Z,972.74
2023-04-14T04:04:55.777Z,972.84
2023-04-14T04:05:28.729Z,972.84
2023-04-14T04:05:59.684Z,972.74
2023-04-14T04:06:32.743Z,972.74
2023-04-14T04:07:03.494Z,972.84
2023-04-14T04:07:36.742Z,972.84
2023-04-14T04:08:07.728Z,972.64
2023-04-14T04:08:40.554Z,972.64
2023-04-14T04:09:11.691Z,972.74
2023-04-14T04:09:44.472Z,972.74
2023-04-14T04:10:15.890Z,972.74
2023-04-14T04:10:55.366Z,972.74
2023-04-14T04:11:19.529Z,972.74
2023-04-14T04:11:51.566Z,972.74
2023-04-14T04:12:23.607Z,972.74
2023-04-14T04:12:55.611Z,972.74
2023-04-14T04:13:28.621Z,972.74
2023-04-14T04:13:59.766Z,972.74
2023-04-14T04:14:34.234Z,972.74
2023-04-14T04:15:04.888Z,972.64
2023-04-14T04:15:37.899Z,972.64
2023-04-14T04:16:07.710Z,972.64
2023-04-14T04:16:40.574Z,972.64
2023-04-14T04:17:11.736Z,972.74
2023-04-14T04:17:44.559Z,972.74
2023-04-14T04:18:15.538Z,972.64
2023-04-14T04:18:48.479Z,972.43
2023-04-14T04:19:19.636Z,972.43
2023-04-14T04:19:52.360Z,972.54
2023-04-14T04:20:23.849Z,972.54
2023-04-14T04:20:56.564Z,972.54
2023-04-14T04:21:27.560Z,972.54
2023-04-14T04:22:00.551Z,972.43
2023-04-14T04:22:31.622Z,972.43
2023-04-14T04:23:04.539Z,972.64
2023-04-14T04:23:35.505Z,972.64
2023-04-14T04:24:08.538Z,972.74
2023-04-14T04:24:39.780Z,972.74
2023-04-14T04:25:12.777Z,972.64
2023-04-14T04:25:43.775Z,972.64
2023-04-14T04:26:19.412Z,972.43
2023-04-14T04:26:47.760Z,972.64
2023-04-14T04:27:27.001Z,972.64
2023-04-14T04:27:51.655Z,972.54
2023-04-14T04:28:24.535Z,972.54
2023-04-14T04:28:55.444Z,972.33
2023-04-14T04:29:28.588Z,972.33
2023-04-14T04:29:59.627Z,972.64
2023-04-14T04:30:33.502Z,972.64
2023-04-14T04:31:03.568Z,972.33
2023-04-14T04:31:36.899Z,972.33
2023-04-14T04:32:07.772Z,972.54
2023-04-14T04:32:41.473Z,972.54
2023-04-14T04:33:11.700Z,972.43
2023-04-14T04:33:44.407Z,972.43
2023-04-14T04:34:15.470Z,972.33
2023-04-14T04:34:48.446Z,972.54
2023-04-14T04:35:19.946Z,972.54
2023-04-14T04:35:52.632Z,972.43
2023-04-14T04:36:23.783Z,972.43
2023-04-14T04:36:56.591Z,972.54
2023-04-14T04:37:27.881Z,972.54
2023-04-14T04:38:00.685Z,972.54
2023-04-14T04:38:31.858Z,972.54
2023-04-14T04:38:48.067Z,972.54
2023-04-14T04:39:19.805Z,972.54
2023-04-14T04:39:51.827Z,972.33
2023-04-14T04:40:24.233Z,972.33
2023-04-14T04:40:55.762Z,972.64
2023-04-14T04:41:28.752Z,972.64
2023-04-14T04:41:59.926Z,972.64
2023-04-14T04:42:32.998Z,972.64
2023-04-14T04:43:03.782Z,972.54
2023-04-14T04:43:36.540Z,972.54
2023-04-14T04:44:07.899Z,972.43
2023-04-14T04:44:41.714Z,972.43
2023-04-14T04:45:12.648Z,972.23
2023-04-14T04:45:45.939Z,972.23
2023-04-14T04:46:16.010Z,972.33
2023-04-14T04:46:48.866Z,972.23
2023-04-14T04:47:19.871Z,972.23
2023-04-14T04:47:52.924Z,972.23
2023-04-14T04:48:23.829Z,972.23
2023-04-14T04:48:56.714Z,972.43
2023-04-14T04:49:27.922Z,972.43
2023-04-14T04:50:01.461Z,972.43
2023-04-14T04:50:31.804Z,972.43
2023-04-14T04:51:04.809Z,972.33
2023-04-14T04:51:36.070Z,972.33
2023-04-14T04:52:08.830Z,972.54
2023-04-14T04:52:39.781Z,972.54
2023-04-14T04:53:12.671Z,972.43
2023-04-14T04:53:43.606Z,972.43
2023-04-14T04:54:16.352Z,972.43
2023-04-14T04:54:47.971Z,972.43
2023-04-14T04:55:21.254Z,972.43
2023-04-14T04:55:51.906Z,972.33
2023-04-14T04:56:24.804Z,972.33
2023-04-14T04:56:57.753Z,972.33
2023-04-14T04:57:29.388Z,972.33
2023-04-14T04:57:59.875Z,972.43
2023-04-14T04:58:32.739Z,972.43
2023-04-14T04:59:04.137Z,972.54
2023-04-14T04:59:38.280Z,972.54
2023-04-14T05:00:11.070Z,972.64
2023-04-14T05:00:41.903Z,972.64
2023-04-14T05:01:12.201Z,972.43
2023-04-14T05:01:44.878Z,972.43
2023-04-14T05:02:15.919Z,972.64
2023-04-14T05:02:48.887Z,972.84
2023-04-14T05:03:19.903Z,972.84
2023-04-14T05:03:52.824Z,972.43
2023-04-14T05:04:24.053Z,972.43
2023-04-14T05:04:56.683Z,972.84
2023-04-14T05:05:28.171Z,972.84
2023-04-14T05:06:00.591Z,972.64
2023-04-14T05:06:31.622Z,972.64
2023-04-14T05:06:47.965Z,972.74
2023-04-14T05:07:19.987Z,972.74
2023-04-14T05:07:51.812Z,972.74
2023-04-14T05:08:24.607Z,972.74
2023-04-14T05:08:55.840Z,972.54
2023-04-14T05:09:28.674Z,972.54
2023-04-14T05:09:59.864Z,972.64
2023-04-14T05:10:34.678Z,972.64
2023-04-14T05:11:04.227Z,972.74
2023-04-14T05:11:36.646Z,972.74
2023-04-14T05:12:07.976Z,972.54
2023-04-14T05:12:40.825Z,972.54
2023-04-14T05:13:11.794Z,972.84
2023-04-14T05:13:44.777Z,972.84
2023-04-14T05:14:15.860Z,972.74
2023-04-14T05:14:49.645Z,972.64
2023-04-14T05:15:20.792Z,972.64
2023-04-14T05:15:52.834Z,972.64
2023-04-14T05:16:24.058Z,972.64
2023-04-14T05:16:56.640Z,972.74
2023-04-14T05:17:27.881Z,972.74
2023-04-14T05:18:00.945Z,972.74
2023-04-14T05:18:31.924Z,972.74
2023-04-14T05:19:04.640Z,972.91
2023-04-14T05:19:35.917Z,972.91
2023-04-14T05:20:09.909Z,972.74
2023-04-14T05:20:39.849Z,972.74
2023-04-14T05:21:12.637Z,972.64
2023-04-14T05:21:43.892Z,972.64
2023-04-14T05:22:16.843Z,972.54
2023-04-14T05:22:47.798Z,972.84
2023-04-14T05:23:20.486Z,972.84
2023-04-14T05:23:51.823Z,972.84
2023-04-14T05:24:24.591Z,972.84
2023-04-14T05:24:55.894Z,972.84
2023-04-14T05:25:28.966Z,972.84
2023-04-14T05:26:16.376Z,972.74
2023-04-14T05:26:51.723Z,972.74
2023-04-14T05:27:36.689Z,972.84
2023-04-14T05:28:07.773Z,972.84
2023-04-14T05:28:40.601Z,972.84
2023-04-14T05:29:11.903Z,972.64
2023-04-14T05:29:44.602Z,972.64
2023-04-14T05:30:16.711Z,972.91
2023-04-14T05:30:49.024Z,972.84
2023-04-14T05:31:19.865Z,972.84
2023-04-14T05:31:52.400Z,972.74
2023-04-14T05:32:23.937Z,972.74
2023-04-14T05:32:56.728Z,972.74
2023-04-14T05:33:27.969Z,972.74
2023-04-14T05:34:00.928Z,972.74
2023-04-14T05:34:31.907Z,972.74
2023-04-14T05:35:04.893Z,972.84
2023-04-14T05:35:35.796Z,972.84
2023-04-14T05:36:08.759Z,972.74
2023-04-14T05:36:39.896Z,972.74
2023-04-14T05:37:12.669Z,972.91
2023-04-14T05:37:43.844Z,972.91
2023-04-14T05:38:16.804Z,973.01
2023-04-14T05:38:47.914Z,973.01
2023-04-14T05:39:20.690Z,973.01
2023-04-14T05:39:51.819Z,972.91
2023-04-14T05:40:25.046Z,972.91
2023-04-14T05:40:56.016Z,973.01
2023-04-14T05:41:28.517Z,973.01
2023-04-14T05:41:59.848Z,973.21
2023-04-14T05:42:32.898Z,973.21
2023-04-14T05:43:03.861Z,973.01
2023-04-14T05:43:36.620Z,973.01
2023-04-14T05:44:07.828Z,972.91
2023-04-14T05:44:40.857Z,972.91
2023-04-14T05:45:12.754Z,973.01
2023-04-14T05:45:45.759Z,973.01
2023-04-14T05:46:16.021Z,973.01
2023-04-14T05:46:48.648Z,972.91
2023-04-14T05:47:19.835Z,972.91
2023-04-14T05:47:52.905Z,972.84
2023-04-14T05:48:23.893Z,972.84
2023-04-14T05:48:57.354Z,973.01
2023-04-14T05:49:27.960Z,973.01
2023-04-14T05:50:01.068Z,973.01
2023-04-14T05:50:31.795Z,973.01
2023-04-14T05:51:04.850Z,972.91
2023-04-14T05:51:35.934Z,972.91
2023-04-14T05:52:08.729Z,972.84
2023-04-14T05:52:39.819Z,972.84
2023-04-14T05:53:12.784Z,973.01
2023-04-14T05:53:43.908Z,973.01
2023-04-14T05:54:16.557Z,972.91
2023-04-14T05:54:47.866Z,972.74
2023-04-14T05:55:21.326Z,972.74
2023-04-14T05:55:52.188Z,972.91
2023-04-14T05:56:24.740Z,972.91
2023-04-14T05:56:55.942Z,973.01
2023-04-14T05:57:28.907Z,973.01
2023-04-14T05:57:59.813Z,973.11
2023-04-14T05:58:32.712Z,973.11
2023-04-14T05:59:04.037Z,972.84
2023-04-14T05:59:39.788Z,972.84
2023-04-14T06:00:09.681Z,973.01
2023-04-14T06:00:40.834Z,973.01
2023-04-14T06:01:12.002Z,972.91
2023-04-14T06:01:44.712Z,972.91
2023-04-14T06:02:16.028Z,972.91
2023-04-14T06:02:49.204Z,972.74
2023-04-14T06:03:20.064Z,972.74
2023-04-14T06:03:53.151Z,972.74
2023-04-14T06:04:23.982Z,972.74
2023-04-14T06:04:56.922Z,973.01
2023-04-14T06:05:28.170Z,973.01
2023-04-14T06:06:01.011Z,972.84
2023-04-14T06:06:32.009Z,972.84
2023-04-14T06:07:04.802Z,972.84
2023-04-14T06:07:35.914Z,972.84
2023-04-14T06:08:08.836Z,972.74
2023-04-14T06:08:39.973Z,972.74
2023-04-14T06:09:12.485Z,972.91
2023-04-14T06:09:43.823Z,972.91
2023-04-14T06:10:17.376Z,972.84
2023-04-14T06:10:47.780Z,972.74
2023-04-14T06:11:20.747Z,972.74
2023-04-14T06:11:51.913Z,972.84
2023-04-14T06:12:24.980Z,972.84
2023-04-14T06:12:55.811Z,972.84
2023-04-14T06:13:31.558Z,972.84
2023-04-14T06:14:00.195Z,972.84
2023-04-14T06:14:32.746Z,972.84
2023-04-14T06:15:05.470Z,972.84
2023-04-14T06:15:36.901Z,972.84
2023-04-14T06:16:07.862Z,972.74
2023-04-14T06:16:40.749Z,972.74
2023-04-14T06:17:12.010Z,972.74
2023-04-14T06:17:44.737Z,972.74
2023-04-14T06:18:15.917Z,972.84
2023-04-14T06:18:48.819Z,973.01
2023-04-14T06:19:19.930Z,973.01
2023-04-14T06:19:54.218Z,972.74
2023-04-14T06:20:24.105Z,972.74
2023-04-14T06:20:56.757Z,973.11
2023-04-14T06:21:27.836Z,973.11
2023-04-14T06:22:00.568Z,972.84
2023-04-14T06:22:31.902Z,972.84
2023-04-14T06:23:04.672Z,972.84
2023-04-14T06:23:35.779Z,972.84
2023-04-14T06:24:08.857Z,972.84
2023-04-14T06:24:39.960Z,972.84
2023-04-14T06:25:12.780Z,972.84
2023-04-14T06:25:44.032Z,972.84
2023-04-14T06:26:16.796Z,972.84
2023-04-14T06:26:47.812Z,972.74
2023-04-14T06:27:20.963Z,972.74
2023-04-14T06:27:51.921Z,972.84
2023-04-14T06:28:24.778Z,972.84
2023-04-14T06:28:55.891Z,972.84
2023-04-14T06:29:28.886Z,972.84
2023-04-14T06:30:00.020Z,972.84
2023-04-14T06:30:33.741Z,972.84
2023-04-14T06:31:03.814Z,972.64
2023-04-14T06:31:36.937Z,972.64
2023-04-14T06:32:07.871Z,972.84
2023-04-14T06:32:40.835Z,972.84
2023-04-14T06:33:11.902Z,972.74
2023-04-14T06:33:44.849Z,972.74
2023-04-14T06:34:15.911Z,972.91
2023-04-14T06:34:50.679Z,972.84
2023-04-14T06:35:31.938Z,972.84
2023-04-14T06:35:52.694Z,972.54
2023-04-14T06:36:23.871Z,972.54
2023-04-14T06:36:56.713Z,972.84
2023-04-14T06:37:28.097Z,972.84
2023-04-14T06:38:00.739Z,972.74